createdAt,value
2018-06-14T00:01:53.492Z,3.87
2018-06-14T00:04:24.145Z,4.95
2018-06-14T00:06:54.828Z,5.83
2018-06-14T00:09:25.479Z,4.62
2018-06-14T00:11:56.172Z,7.55
2018-06-14T00:14:26.848Z,7.55
2018-06-14T00:16:57.544Z,7.50
2018-06-14T00:19:28.240Z,5.45
2018-06-14T00:22:05.507Z,5.22
2018-06-14T00:24:35.032Z,4.97
2018-06-14T00:27:05.704Z,6.85
2018-06-14T00:29:36.387Z,7.67
2018-06-14T00:32:07.316Z,5.95
2018-06-14T00:34:38.011Z,7.95
2018-06-14T00:37:08.675Z,6.35
2018-06-14T00:39:39.367Z,7.75
2018-06-14T00:42:10.028Z,8.83
2018-06-14T00:44:40.707Z,3.90
2018-06-14T00:47:11.359Z,4.80
2018-06-14T00:49:42.044Z,4.58
2018-06-14T00:52:12.703Z,6.33
2018-06-14T00:54:43.381Z,7.72
2018-06-14T00:57:22.899Z,5.12
2018-06-14T00:59:54.064Z,6.85
2018-06-14T01:02:24.856Z,3.90
2018-06-14T01:04:55.739Z,4.40
2018-06-14T01:07:26.385Z,3.62
2018-06-14T01:09:57.089Z,4.17
2018-06-14T01:12:27.727Z,4.95
2018-06-14T01:14:58.415Z,6.72
2018-06-14T01:17:29.103Z,6.30
2018-06-14T01:19:59.803Z,3.40
2018-06-14T01:22:30.657Z,3.52
2018-06-14T01:25:01.515Z,7.03
2018-06-14T01:27:32.163Z,4.08
2018-06-14T01:30:02.952Z,8.40
2018-06-14T01:32:33.603Z,3.70
2018-06-14T01:35:04.521Z,4.12
2018-06-14T01:37:46.580Z,5.95
2018-06-14T01:40:17.289Z,5.65
2018-06-14T01:42:48.151Z,4.70
2018-06-14T01:45:18.839Z,6.05
2018-06-14T01:47:49.903Z,5.33
2018-06-14T01:50:20.604Z,4.80
2018-06-14T01:52:51.252Z,4.22
2018-06-14T01:55:21.964Z,4.55
2018-06-14T01:57:52.597Z,4.20
2018-06-14T02:00:23.277Z,7.05
2018-06-14T02:02:54.270Z,5.35
2018-06-14T02:05:24.967Z,4.33
2018-06-14T02:07:55.635Z,5.75
2018-06-14T02:10:26.567Z,6.65
2018-06-14T02:12:57.219Z,7.00
2018-06-14T02:15:28.855Z,6.65
2018-06-14T02:18:00.109Z,3.90
2018-06-14T02:20:30.940Z,4.92
2018-06-14T02:23:01.824Z,5.00
2018-06-14T02:25:32.490Z,5.67
2018-06-14T02:28:03.167Z,5.10
2018-06-14T02:30:33.827Z,5.67
2018-06-14T02:33:04.947Z,5.03
2018-06-14T02:35:35.595Z,3.92
2018-06-14T02:38:06.316Z,5.40
2018-06-14T02:40:36.979Z,5.65
2018-06-14T02:43:07.671Z,4.28
2018-06-14T02:45:38.323Z,8.55
2018-06-14T02:48:09.008Z,4.10
2018-06-14T02:50:39.663Z,5.37
2018-06-14T02:53:11.034Z,10.85
2018-06-14T02:55:41.716Z,8.40
2018-06-14T02:58:12.407Z,5.47
2018-06-14T03:00:43.475Z,5.87
2018-06-14T03:03:15.248Z,5.78
2018-06-14T03:05:45.955Z,8.13
2018-06-14T03:08:16.639Z,8.45
2018-06-14T03:10:47.327Z,4.80
2018-06-14T03:13:18.339Z,5.53
2018-06-14T03:15:49.383Z,4.78
2018-06-14T03:18:20.037Z,7.55
2018-06-14T03:20:50.732Z,7.00
2018-06-14T03:23:21.467Z,9.93
2018-06-14T03:25:52.198Z,7.17
2018-06-14T03:28:22.867Z,8.50
2018-06-14T03:30:53.599Z,4.78
2018-06-14T03:33:24.271Z,5.60
2018-06-14T03:35:54.955Z,3.98
2018-06-14T03:38:26.134Z,8.43
2018-06-14T03:40:57.260Z,5.20
2018-06-14T03:43:27.947Z,11.28
2018-06-14T03:45:58.624Z,5.80
2018-06-14T03:48:29.331Z,5.92
2018-06-14T03:50:59.980Z,5.97
2018-06-14T03:53:30.653Z,6.20
2018-06-14T03:56:01.303Z,6.92
2018-06-14T03:58:31.988Z,5.15
2018-06-14T04:01:02.747Z,9.75
2018-06-14T04:03:33.431Z,6.05
2018-06-14T04:06:04.092Z,7.47
2018-06-14T04:08:34.819Z,5.28
2018-06-14T04:11:05.504Z,6.20
2018-06-14T04:13:36.155Z,4.65
2018-06-14T04:16:06.840Z,7.55
2018-06-14T04:18:37.606Z,6.62
2018-06-14T04:21:08.395Z,10.53
2018-06-14T04:23:39.123Z,5.95
2018-06-14T04:26:09.771Z,5.30
2018-06-14T04:28:40.463Z,6.80
2018-06-14T04:31:11.121Z,9.03
2018-06-14T04:33:41.796Z,7.35
2018-06-14T04:36:12.451Z,7.37
2018-06-14T04:38:43.199Z,7.12
2018-06-14T04:41:13.879Z,8.25
2018-06-14T04:43:44.885Z,7.35
2018-06-14T04:46:15.575Z,9.55
2018-06-14T04:48:46.219Z,6.37
2018-06-14T04:51:17.595Z,7.65
2018-06-14T04:53:48.248Z,7.75
2018-06-14T04:56:18.955Z,7.35
2018-06-14T04:58:49.627Z,10.23
2018-06-14T05:01:20.327Z,7.35
2018-06-14T05:03:51.083Z,7.12
2018-06-14T05:06:22.108Z,11.68
2018-06-14T05:08:52.799Z,8.00
2018-06-14T05:11:23.479Z,8.80
2018-06-14T05:13:54.136Z,8.55
2018-06-14T05:16:24.827Z,8.63
2018-06-14T05:18:55.487Z,6.28
2018-06-14T05:21:26.179Z,10.25
2018-06-14T05:23:56.851Z,7.42
2018-06-14T05:26:27.547Z,9.75
2018-06-14T05:28:58.446Z,9.70
2018-06-14T05:31:29.131Z,7.45
2018-06-14T05:33:59.824Z,7.53
2018-06-14T05:36:30.511Z,7.42
2018-06-14T05:39:01.214Z,7.47
2018-06-14T05:41:31.863Z,8.75
2018-06-14T05:44:02.546Z,8.30
2018-06-14T05:46:33.705Z,10.32
2018-06-14T05:49:04.755Z,6.65
2018-06-14T05:51:35.436Z,8.38
2018-06-14T05:54:06.108Z,8.20
2018-06-14T05:56:36.776Z,11.40
2018-06-14T05:59:07.820Z,9.50
2018-06-14T06:01:38.503Z,7.92
2018-06-14T06:04:09.192Z,7.47
2018-06-14T06:06:39.843Z,7.33
2018-06-14T06:09:11.775Z,7.62
2018-06-14T06:11:42.435Z,8.53
2018-06-14T06:14:13.135Z,7.53
2018-06-14T06:16:43.795Z,8.63
2018-06-14T06:19:14.490Z,10.45
2018-06-14T06:21:45.144Z,7.78
2018-06-14T06:24:15.856Z,8.93
2018-06-14T06:29:23.572Z,7.00
2018-06-14T06:31:54.224Z,9.35
2018-06-14T06:34:24.903Z,5.62
2018-06-14T06:36:55.592Z,8.28
2018-06-14T06:39:26.243Z,5.85
2018-06-14T06:41:57.143Z,5.78
2018-06-14T06:44:27.795Z,8.55
2018-06-14T06:46:58.495Z,9.05
2018-06-14T06:49:29.148Z,7.65
2018-06-14T06:51:59.864Z,10.50
2018-06-14T06:54:30.515Z,8.15
2018-06-14T06:57:01.256Z,6.87
2018-06-14T06:59:31.907Z,7.30
2018-06-14T07:02:02.590Z,5.80
2018-06-14T07:04:33.884Z,5.15
2018-06-14T07:07:04.867Z,7.60
2018-06-14T07:09:35.543Z,4.87
2018-06-14T07:12:06.231Z,5.83
2018-06-14T07:14:36.907Z,5.97
2018-06-14T07:17:07.591Z,4.87
2018-06-14T07:19:38.279Z,7.22
2018-06-14T07:22:08.937Z,5.90
2018-06-14T07:24:39.624Z,6.72
2018-06-14T07:27:10.279Z,6.90
2018-06-14T07:29:41.163Z,6.37
2018-06-14T07:32:11.831Z,5.05
2018-06-14T07:34:42.520Z,6.33
2018-06-14T07:37:13.203Z,5.12
2018-06-14T07:39:43.858Z,4.70
2018-06-14T07:42:14.544Z,5.80
2018-06-14T07:44:45.195Z,5.08
2018-06-14T07:47:15.897Z,6.10
2018-06-14T07:49:46.547Z,5.30
2018-06-14T07:52:17.255Z,4.58
2018-06-14T07:54:48.095Z,5.45
2018-06-14T07:57:18.820Z,6.00
2018-06-14T07:59:49.464Z,5.62
2018-06-14T08:02:20.175Z,5.60
2018-06-14T08:04:50.819Z,4.65
2018-06-14T08:07:21.516Z,6.40
2018-06-14T08:09:52.183Z,4.60
2018-06-14T08:12:22.921Z,4.22
2018-06-14T08:14:53.720Z,6.17
2018-06-14T08:17:24.403Z,8.03
2018-06-14T08:19:55.039Z,4.15
2018-06-14T08:22:25.731Z,8.65
2018-06-14T08:24:56.388Z,5.00
2018-06-14T08:27:27.075Z,5.12
2018-06-14T08:29:57.803Z,7.22
2018-06-14T08:32:28.503Z,6.62
2018-06-14T08:34:59.143Z,4.47
2018-06-14T08:37:30.628Z,4.62
2018-06-14T08:40:01.276Z,3.45
2018-06-14T08:42:33.415Z,4.70
2018-06-14T08:45:04.424Z,5.12
2018-06-14T08:47:35.103Z,3.80
2018-06-14T08:50:06.327Z,4.72
2018-06-14T08:52:37.011Z,5.55
2018-06-14T08:55:07.667Z,4.00
2018-06-14T08:57:38.399Z,5.35
2018-06-14T09:00:09.099Z,8.93
2018-06-14T09:02:39.799Z,5.65
2018-06-14T09:05:10.529Z,6.72
2018-06-14T09:07:41.399Z,5.03
2018-06-14T09:10:12.088Z,7.22
2018-06-14T09:12:42.775Z,4.40
2018-06-14T09:15:13.466Z,4.90
2018-06-14T09:17:44.115Z,4.60
2018-06-14T09:20:14.816Z,7.15
2018-06-14T09:22:45.483Z,6.87
2018-06-14T09:25:16.172Z,3.35
2018-06-14T09:27:46.821Z,4.40
2018-06-14T09:30:17.520Z,5.58
2018-06-14T09:32:48.175Z,7.70
2018-06-14T09:35:18.875Z,4.55
2018-06-14T09:37:49.527Z,5.72
2018-06-14T09:40:20.734Z,4.92
2018-06-14T09:42:51.425Z,3.85
2018-06-14T09:45:22.468Z,3.80
2018-06-14T09:47:53.153Z,7.22
2018-06-14T09:50:24.439Z,6.60
2018-06-14T09:52:55.284Z,4.55
2018-06-14T09:55:25.957Z,4.28
2018-06-14T09:57:56.888Z,3.90
2018-06-14T10:00:27.785Z,4.28
2018-06-14T10:02:58.619Z,6.03
2018-06-14T10:05:29.311Z,5.05
2018-06-14T10:08:00.388Z,7.12
2018-06-14T10:10:31.072Z,5.40
2018-06-14T10:13:01.752Z,4.00
2018-06-14T10:15:32.435Z,5.25
2018-06-14T10:18:03.094Z,6.28
2018-06-14T10:20:33.796Z,7.40
2018-06-14T10:23:04.489Z,3.95
2018-06-14T10:25:35.395Z,4.37
2018-06-14T10:28:06.099Z,4.70
2018-06-14T10:30:36.762Z,5.75
2018-06-14T10:33:07.452Z,5.37
2018-06-14T10:35:38.118Z,5.37
2018-06-14T10:38:08.831Z,5.87
2018-06-14T10:40:39.471Z,4.20
2018-06-14T10:43:10.153Z,2.55
2018-06-14T10:45:40.803Z,4.25
2018-06-14T10:48:11.524Z,4.72
2018-06-14T10:50:42.239Z,4.08
2018-06-14T10:53:12.879Z,4.25
2018-06-14T10:55:43.563Z,4.42
2018-06-14T10:58:14.261Z,4.15
2018-06-14T11:00:44.671Z,3.80
2018-06-14T11:03:15.329Z,5.28
2018-06-14T11:05:45.735Z,3.93
2018-06-14T11:08:16.390Z,4.65
2018-06-14T11:10:46.793Z,3.60
2018-06-14T11:13:17.514Z,5.58
2018-06-14T11:15:48.352Z,5.90
2018-06-14T11:18:18.744Z,5.43
2018-06-14T11:20:49.405Z,7.20
2018-06-14T11:23:19.819Z,3.00
2018-06-14T11:25:50.475Z,5.58
2018-06-14T11:28:21.199Z,4.83
2018-06-14T11:30:51.561Z,2.97
2018-06-14T11:33:21.967Z,3.63
2018-06-14T11:35:52.324Z,4.60
2018-06-14T11:38:22.712Z,2.77
2018-06-14T11:40:53.071Z,4.30
2018-06-14T11:43:23.491Z,4.30
2018-06-14T11:45:53.902Z,4.37
2018-06-14T11:48:24.329Z,3.83
2018-06-14T11:50:54.903Z,4.00
2018-06-14T11:53:25.299Z,3.07
2018-06-14T11:55:55.688Z,6.23
2018-06-14T11:58:26.119Z,3.43
2018-06-14T12:00:56.536Z,4.30
2018-06-14T12:03:26.941Z,3.40
2018-06-14T12:05:57.375Z,6.23
2018-06-14T12:08:27.903Z,3.27
2018-06-14T12:10:58.468Z,3.23
2018-06-14T12:13:28.862Z,3.63
2018-06-14T12:15:59.225Z,3.43
2018-06-14T12:18:29.615Z,2.80
2018-06-14T12:21:00.159Z,3.70
2018-06-14T12:23:30.556Z,3.10
2018-06-14T12:26:00.936Z,4.93
2018-06-14T12:28:31.328Z,3.83
2018-06-14T12:31:01.692Z,3.37
2018-06-14T12:33:32.104Z,2.87
2018-06-14T12:36:02.469Z,2.97
2018-06-14T12:38:33.068Z,1.93
2018-06-14T12:41:03.423Z,4.33
2018-06-14T12:43:33.832Z,4.97
2018-06-14T12:46:04.547Z,3.07
2018-06-14T12:48:34.939Z,4.47
2018-06-14T12:51:05.323Z,3.13
2018-06-14T12:53:35.731Z,2.67
2018-06-14T12:56:06.344Z,6.20
2018-06-14T12:58:36.780Z,3.03
2018-06-14T13:01:07.324Z,2.47
2018-06-14T13:03:37.715Z,3.13
2018-06-14T13:06:08.288Z,4.17
2018-06-14T13:08:38.719Z,3.43
2018-06-14T13:11:09.140Z,3.03
2018-06-14T13:13:39.763Z,2.63
2018-06-14T13:16:10.310Z,4.60
2018-06-14T13:18:40.703Z,2.60
2018-06-14T13:21:11.101Z,3.63
2018-06-14T13:23:41.483Z,3.80
2018-06-14T13:26:11.883Z,4.03
2018-06-14T13:28:42.296Z,2.30
2018-06-14T13:31:12.656Z,2.80
2018-06-14T13:33:43.055Z,5.03
2018-06-14T13:36:13.827Z,3.00
2018-06-14T13:38:44.208Z,3.63
2018-06-14T13:41:14.582Z,5.80
2018-06-14T13:43:44.971Z,2.77
2018-06-14T13:46:15.339Z,3.63
2018-06-14T13:48:45.810Z,3.13
2018-06-14T13:51:16.319Z,5.63
2018-06-14T13:53:46.706Z,3.17
2018-06-14T13:56:17.071Z,2.83
2018-06-14T13:58:47.484Z,3.77
2018-06-14T14:01:17.919Z,2.70
2018-06-14T14:03:48.444Z,6.20
2018-06-14T14:06:18.851Z,2.53
2018-06-14T14:08:49.244Z,4.03
2018-06-14T14:11:19.635Z,3.03
2018-06-14T14:13:50.011Z,4.80
2018-06-14T14:16:20.560Z,4.97
2018-06-14T14:18:50.915Z,2.77
2018-06-14T14:21:21.299Z,2.57
2018-06-14T14:23:51.773Z,2.83
2018-06-14T14:26:22.295Z,2.33
2018-06-14T14:28:52.679Z,4.80
2018-06-14T14:31:23.100Z,6.33
2018-06-14T14:33:53.689Z,5.63
2018-06-14T14:36:24.096Z,3.57
2018-06-14T14:38:54.483Z,7.30
2018-06-14T14:41:24.883Z,5.07
2018-06-14T14:43:55.272Z,4.13
2018-06-14T14:46:25.655Z,2.83
2018-06-14T14:48:56.047Z,4.90
2018-06-14T14:51:26.441Z,6.10
2018-06-14T14:53:56.832Z,2.37
2018-06-14T14:56:27.231Z,5.67
2018-06-14T14:58:57.615Z,4.20
2018-06-14T15:01:28.016Z,3.97
2018-06-14T15:03:58.411Z,6.23
2018-06-14T15:06:28.847Z,2.90
2018-06-14T15:08:59.707Z,4.50
2018-06-14T15:11:30.091Z,3.07
2018-06-14T15:14:00.467Z,3.93
2018-06-14T15:16:30.867Z,2.63
2018-06-14T15:19:01.241Z,3.67
2018-06-14T15:21:31.642Z,4.20
2018-06-14T15:24:02.011Z,4.13
2018-06-14T15:26:32.599Z,3.30
2018-06-14T15:29:02.958Z,4.17
2018-06-14T15:31:33.453Z,3.43
2018-06-14T15:34:04.020Z,2.80
2018-06-14T15:36:34.432Z,3.03
2018-06-14T15:39:06.880Z,5.37
2018-06-14T15:41:37.415Z,5.17
2018-06-14T15:44:07.799Z,2.60
2018-06-14T15:46:38.195Z,4.53
2018-06-14T15:49:08.579Z,4.63
2018-06-14T15:51:38.975Z,6.17
2018-06-14T15:54:10.654Z,3.00
2018-06-14T15:56:42.307Z,3.97
2018-06-14T15:59:15.028Z,2.90
2018-06-14T16:01:45.379Z,3.77
2018-06-14T16:04:15.787Z,5.13
2018-06-14T16:06:46.159Z,6.67
2018-06-14T16:09:16.571Z,3.40
2018-06-14T16:11:47.350Z,11.00
2018-06-14T16:14:17.915Z,4.57
2018-06-14T16:16:48.295Z,5.47
2018-06-14T16:19:18.681Z,6.83
2018-06-14T16:21:49.047Z,3.57
2018-06-14T16:24:19.732Z,5.85
2018-06-14T16:26:50.413Z,7.60
2018-06-14T16:29:21.271Z,5.58
2018-06-14T16:31:51.928Z,9.13
2018-06-14T16:34:22.616Z,5.90
2018-06-14T16:36:53.267Z,5.03
2018-06-14T16:39:23.939Z,4.15
2018-06-14T16:41:54.636Z,5.25
2018-06-14T16:44:25.373Z,5.95
2018-06-14T16:46:56.185Z,5.12
2018-06-14T16:49:26.855Z,6.12
2018-06-14T16:51:57.543Z,6.62
2018-06-14T16:54:28.203Z,4.67
2018-06-14T16:56:58.895Z,6.78
2018-06-14T16:59:29.551Z,6.70
2018-06-14T17:02:00.247Z,5.72
2018-06-14T17:04:30.927Z,7.78
2018-06-14T17:07:01.683Z,9.05
2018-06-14T17:09:32.342Z,7.20
2018-06-14T17:12:03.381Z,5.53
2018-06-14T17:14:34.328Z,5.67
2018-06-14T17:17:05.289Z,5.92
2018-06-14T17:19:36.431Z,5.20
2018-06-14T17:22:07.103Z,6.08
2018-06-14T17:24:37.787Z,8.48
2018-06-14T17:27:08.437Z,6.70
2018-06-14T17:29:39.131Z,7.42
2018-06-14T17:32:09.792Z,6.00
2018-06-14T17:34:40.489Z,6.08
2018-06-14T17:37:11.175Z,6.25
2018-06-14T17:39:41.863Z,7.25
2018-06-14T17:42:12.619Z,6.92
2018-06-14T17:44:43.319Z,8.58
2018-06-14T17:47:13.999Z,6.47
2018-06-14T17:49:44.679Z,6.87
2018-06-14T17:52:15.376Z,9.15
2018-06-14T17:54:46.033Z,7.70
2018-06-14T17:57:16.740Z,6.37
2018-06-14T17:59:47.425Z,6.62
2018-06-14T18:02:18.119Z,7.22
2018-06-14T18:04:48.775Z,6.67
2018-06-14T18:07:19.503Z,7.87
2018-06-14T18:09:50.171Z,6.15
2018-06-14T18:12:21.550Z,6.47
2018-06-14T18:14:52.344Z,7.78
2018-06-14T18:17:23.038Z,8.55
2018-06-14T18:19:53.680Z,8.20
2018-06-14T18:22:24.386Z,10.30
2018-06-14T18:24:55.032Z,10.38
2018-06-14T18:27:25.732Z,10.95
2018-06-14T18:29:56.421Z,6.87
2018-06-14T18:32:27.284Z,7.10
2018-06-14T18:34:57.971Z,7.78
2018-06-14T18:37:28.659Z,7.10
2018-06-14T18:39:59.344Z,10.18
2018-06-14T18:42:30.052Z,9.25
2018-06-14T18:45:01.048Z,9.03
2018-06-14T18:47:31.726Z,9.08
2018-06-14T18:50:02.399Z,7.05
2018-06-14T18:52:33.138Z,9.43
2018-06-14T18:55:03.892Z,11.85
2018-06-14T18:57:34.584Z,7.67
2018-06-14T19:00:05.332Z,13.65
2018-06-14T19:02:36.039Z,10.65
2018-06-14T19:05:06.776Z,8.90
2018-06-14T19:07:37.496Z,8.65
2018-06-14T19:10:08.163Z,10.05
2018-06-14T19:12:38.861Z,7.87
2018-06-14T19:15:09.564Z,8.50
2018-06-14T19:17:40.455Z,9.88
2018-06-14T19:20:11.333Z,9.50
2018-06-14T19:22:42.365Z,7.75
2018-06-14T19:25:13.263Z,9.38
2018-06-14T19:27:43.956Z,10.35
2018-06-14T19:30:14.996Z,9.08
2018-06-14T19:32:45.751Z,8.03
2018-06-14T19:35:16.451Z,8.90
2018-06-14T19:37:47.127Z,9.63
2018-06-14T19:40:17.848Z,8.90
2018-06-14T19:42:48.876Z,8.55
2018-06-14T19:45:19.704Z,9.03
2018-06-14T19:47:50.547Z,9.08
2018-06-14T19:50:21.223Z,13.72
2018-06-14T19:52:52.095Z,10.05
2018-06-14T19:55:24.463Z,8.55
2018-06-14T19:57:55.156Z,9.85
2018-06-14T20:00:25.895Z,10.70
2018-06-14T20:02:56.595Z,7.60
2018-06-14T20:05:27.885Z,8.35
2018-06-14T20:07:58.621Z,9.90
2018-06-14T20:10:29.267Z,8.83
2018-06-14T20:12:59.963Z,9.48
2018-06-14T20:15:31.043Z,7.75
2018-06-14T20:18:01.755Z,10.13
2018-06-14T20:20:32.444Z,9.30
2018-06-14T20:23:03.312Z,7.75
2018-06-14T20:25:33.981Z,7.72
2018-06-14T20:28:05.112Z,10.18
2018-06-14T20:30:35.814Z,10.80
2018-06-14T20:33:06.628Z,7.65
2018-06-14T20:35:37.311Z,7.78
2018-06-14T20:38:08.381Z,8.93
2018-06-14T20:40:39.041Z,8.05
2018-06-14T20:43:09.898Z,10.43
2018-06-14T20:45:40.551Z,7.78
2018-06-14T20:48:11.375Z,8.20
2018-06-14T20:50:42.040Z,7.53
2018-06-14T20:53:12.736Z,9.95
2018-06-14T20:55:43.399Z,9.58
2018-06-14T20:58:14.127Z,7.58
2018-06-14T21:00:44.803Z,7.92
2018-06-14T21:03:15.527Z,12.43
2018-06-14T21:05:46.180Z,10.00
2018-06-14T21:08:16.871Z,8.60
2018-06-14T21:10:47.555Z,8.28
2018-06-14T21:13:18.263Z,8.88
2018-06-14T21:15:48.960Z,10.08
2018-06-14T21:18:19.639Z,7.50
2018-06-14T21:20:50.347Z,9.10
2018-06-14T21:23:21.203Z,8.75
2018-06-14T21:25:51.894Z,7.85
2018-06-14T21:28:22.591Z,7.30
2018-06-14T21:30:53.295Z,9.18
2018-06-14T21:33:23.963Z,7.58
2018-06-14T21:35:54.679Z,7.15
2018-06-14T21:38:25.327Z,7.50
2018-06-14T21:40:56.040Z,7.87
2018-06-14T21:43:26.717Z,7.97
2018-06-14T21:45:57.415Z,8.03
2018-06-14T21:48:28.099Z,9.50
2018-06-14T21:50:58.764Z,9.25
2018-06-14T21:53:29.593Z,7.37
2018-06-14T21:56:00.252Z,7.97
2018-06-14T21:58:30.967Z,9.58
2018-06-14T22:01:01.628Z,8.00
2018-06-14T22:03:37.813Z,7.42
2018-06-14T22:06:08.680Z,11.53
2018-06-14T22:08:39.348Z,8.10
2018-06-14T22:11:10.048Z,8.08
2018-06-14T22:13:40.707Z,6.95
2018-06-14T22:16:11.479Z,9.13
2018-06-14T22:18:42.143Z,10.43
2018-06-14T22:21:12.829Z,7.28
2018-06-14T22:23:43.487Z,7.87
2018-06-14T22:26:14.283Z,10.13
2018-06-14T22:28:44.959Z,6.78
2018-06-14T22:31:15.647Z,6.65
2018-06-14T22:33:57.727Z,8.75
2018-06-14T22:36:28.415Z,7.67
2018-06-14T22:38:59.119Z,8.40
2018-06-14T22:41:29.824Z,8.53
2018-06-14T22:44:00.569Z,8.05
2018-06-14T22:46:31.405Z,7.08
2018-06-14T22:49:02.100Z,9.30
2018-06-14T22:51:43.795Z,7.37
2018-06-14T22:54:14.535Z,8.05
2018-06-14T22:56:45.283Z,7.40
2018-06-14T22:59:15.963Z,7.87
2018-06-14T23:01:49.639Z,14.53
2018-06-14T23:04:22.656Z,8.25
2018-06-14T23:06:53.465Z,8.48
2018-06-14T23:10:37.096Z,9.45
2018-06-14T23:13:09.023Z,9.68
2018-06-14T23:15:39.928Z,7.72
2018-06-14T23:18:10.591Z,8.85
2018-06-14T23:20:41.360Z,7.87
2018-06-14T23:23:12.048Z,8.03
2018-06-14T23:25:42.759Z,10.53
2018-06-14T23:28:13.607Z,9.23
2018-06-14T23:30:44.303Z,9.08
2018-06-14T23:33:14.963Z,8.23
2018-06-14T23:35:45.661Z,10.05
2018-06-14T23:38:16.343Z,9.00
2018-06-14T23:40:47.024Z,6.92
2018-06-14T23:43:17.682Z,7.58
2018-06-14T23:45:48.375Z,9.18
2018-06-14T23:48:19.068Z,8.70
2018-06-14T23:50:49.764Z,7.03
2018-06-14T23:53:20.407Z,7.78
2018-06-14T23:55:51.091Z,6.67
2018-06-14T23:58:21.803Z,7.62
